Deckers, Colorado
Current Conditions -  °F | °C
As of 1:53 AM on Tuesday 21 Oct 2014 (Local Time) from KAPA Reporting Station
Clear Clear  
Wind Chill: 55°   Ceiling: Unl
Heat Index: 55°   Visibility: 10mi
Dew Point: 37°   Wind: 5mph
Humidity: 51%   Direction: NA
Pressure: 30.08"   Gusts: NA
Location:  39.3043°N, 105.131°W
Report Text: KAPA 210753Z VRB04KT 10SM CLR 13/03 A3008 RMK AO2 SLP131 T01280028
Loading
Personal Weather Stations






























Interactive Weather Map
Tropical Storm Tracking
New forecast layout! Learn more

10-Day Weather Forecast

Advertisements
Track Severe Weather on mobile